Time;durP1;ratioP1;P1;durP2;ratioP2;P2;SDS_P1;SDS_P2;PMS_P1;PMS_P2;Temp;Humidity;BMP_temperature;BMP_pressure;BME280_temperature;BME280_humidity;BME280_pressure;Samples;Min_cycle;Max_cycle;Signal;HPM_P1;HPM_P2
2023/09/10 00:00:40;;;;;;;;;;;18.30;99.90;;;;;;5116108;28;19908;-44
2023/09/10 00:03:06;;;;;;;;;;;18.30;99.90;;;;;;5119411;27;20370;-42
2023/09/10 00:05:32;;;;;;;;;;;18.30;99.90;;;;;;5136600;27;19911;-42
2023/09/10 00:08:00;;;;;;;;;;;18.20;99.90;;;;;;5136502;27;19911;-40
2023/09/10 00:10:26;;;;;;;;;;;18.20;99.90;;;;;;5136343;27;19964;-42
2023/09/10 00:12:51;;;;;;;;;;;18.20;99.90;;;;;;5136351;27;19911;-42
2023/09/10 00:15:17;;;;;;;;;;;18.20;99.90;;;;;;5136319;27;20025;-42
2023/09/10 00:17:42;;;;;;;;;;;18.20;99.90;;;;;;5136629;27;20296;-40
2023/09/10 00:20:10;;;;;;;;;;;18.20;99.90;;;;;;5136441;27;19915;-41
2023/09/10 00:22:35;;;;;;;;;;;18.10;99.90;;;;;;5135677;27;20013;-42
2023/09/10 00:25:02;;;;;;;;;;;18.10;99.90;;;;;;5135480;27;20006;-42
2023/09/10 00:27:27;;;;;;;;;;;18.10;99.90;;;;;;5136176;27;19912;-41
2023/09/10 00:29:53;;;;;;;;;;;18.00;99.90;;;;;;5118365;27;19961;-44
2023/09/10 00:32:18;;;;;;;;;;;18.00;99.90;;;;;;5138381;27;19919;-45
2023/09/10 00:34:44;;;;;;;;;;;18.00;99.90;;;;;;5156587;27;19907;-43
2023/09/10 00:37:09;;;;;;;;;;;18.00;99.90;;;;;;5156538;27;19915;-41
2023/09/10 00:39:35;;;;;;;;;;;17.90;99.90;;;;;;5156870;27;19962;-43
2023/09/10 00:42:00;;;;;;;;;;;17.90;99.90;;;;;;5156497;27;19907;-41
2023/09/10 00:44:26;;;;;;;;;;;17.80;99.90;;;;;;5156521;27;19969;-43
2023/09/10 00:46:51;;;;;;;;;;;17.80;99.90;;;;;;5156482;27;19915;-41
2023/09/10 00:49:17;;;;;;;;;;;17.80;99.90;;;;;;5137858;27;19918;-43
2023/09/10 00:51:43;;;;;;;;;;;17.80;99.90;;;;;;5154881;27;19949;-41
2023/09/10 00:54:09;;;;;;;;;;;17.70;99.90;;;;;;5135435;27;19908;-40
2023/09/10 00:56:35;;;;;;;;;;;17.60;99.90;;;;;;5135551;27;19936;-41
2023/09/10 00:59:00;;;;;;;;;;;17.60;99.90;;;;;;5135119;27;19997;-42
2023/09/10 01:01:26;;;;;;;;;;;17.60;99.90;;;;;;5135551;27;20314;-42
2023/09/10 01:03:51;;;;;;;;;;;17.60;99.90;;;;;;5135301;27;19915;-43
2023/09/10 01:06:17;;;;;;;;;;;17.60;99.90;;;;;;5135302;27;19907;-42
2023/09/10 01:08:43;;;;;;;;;;;17.50;99.90;;;;;;5135180;27;19959;-40
2023/09/10 01:11:44;;;;;;;;;;;17.50;99.90;;;;;;5135337;27;19930;-41
2023/09/10 01:14:12;;;;;;;;;;;17.50;99.90;;;;;;5071331;28;19912;-41
2023/09/10 01:16:51;;;;;;;;;;;17.50;99.90;;;;;;5122805;27;19911;-42
2023/09/10 01:19:16;;;;;;;;;;;17.50;99.90;;;;;;5134983;27;19934;-40
2023/09/10 01:21:55;;;;;;;;;;;17.50;99.90;;;;;;5135206;27;20366;-42
2023/09/10 01:24:27;;;;;;;;;;;17.50;99.90;;;;;;5154913;27;19919;-41
2023/09/10 01:26:56;;;;;;;;;;;17.40;99.90;;;;;;5155498;27;20361;-42
2023/09/10 01:29:21;;;;;;;;;;;17.40;99.90;;;;;;5155719;27;19907;-42
2023/09/10 01:31:50;;;;;;;;;;;17.40;99.90;;;;;;5155215;27;20010;-41
2023/09/10 01:34:16;;;;;;;;;;;17.40;99.90;;;;;;5154738;27;19911;-40
2023/09/10 01:36:43;;;;;;;;;;;17.40;99.90;;;;;;5155563;27;19994;-43
2023/09/10 01:39:08;;;;;;;;;;;17.40;99.90;;;;;;5155353;27;19907;-41
2023/09/10 01:41:35;;;;;;;;;;;17.40;99.90;;;;;;5155425;27;19907;-41
2023/09/10 01:44:01;;;;;;;;;;;17.40;99.90;;;;;;5155068;27;20325;-41
2023/09/10 01:46:27;;;;;;;;;;;17.40;99.90;;;;;;5155543;27;19907;-46
2023/09/10 01:48:52;;;;;;;;;;;17.40;99.90;;;;;;5155107;27;19908;-42
2023/09/10 01:51:19;;;;;;;;;;;17.50;99.90;;;;;;5152740;27;19994;-42
2023/09/10 01:53:46;;;;;;;;;;;17.50;99.90;;;;;;5155707;27;19907;-42
2023/09/10 01:56:11;;;;;;;;;;;17.40;99.90;;;;;;5155333;27;19911;-41
2023/09/10 01:58:38;;;;;;;;;;;17.50;99.90;;;;;;5155027;27;19918;-42
2023/09/10 02:01:05;;;;;;;;;;;17.40;99.90;;;;;;5154989;27;19908;-42
2023/09/10 02:03:31;;;;;;;;;;;17.40;99.90;;;;;;5155053;27;19997;-43
2023/09/10 02:05:58;;;;;;;;;;;17.40;99.90;;;;;;5154849;27;19915;-43
2023/09/10 02:08:24;;;;;;;;;;;17.40;99.90;;;;;;5154914;27;20293;-41
2023/09/10 02:10:50;;;;;;;;;;;17.30;99.90;;;;;;5142975;27;20387;-40
2023/09/10 02:13:15;;;;;;;;;;;17.30;99.90;;;;;;5131969;27;20261;-41
2023/09/10 02:15:41;;;;;;;;;;;17.30;99.90;;;;;;5134044;27;19907;-41
2023/09/10 02:18:06;;;;;;;;;;;17.30;99.90;;;;;;5133907;27;19976;-41
2023/09/10 02:20:35;;;;;;;;;;;17.30;99.90;;;;;;5133841;27;20354;-43
2023/09/10 02:23:01;;;;;;;;;;;17.30;99.90;;;;;;5133794;27;19922;-42
2023/09/10 02:25:26;;;;;;;;;;;17.20;99.90;;;;;;5134086;27;19908;-41
2023/09/10 02:27:52;;;;;;;;;;;17.10;99.90;;;;;;5133641;27;20281;-42
2023/09/10 02:30:17;;;;;;;;;;;17.10;99.90;;;;;;5133756;27;19940;-41
2023/09/10 02:32:43;;;;;;;;;;;17.00;99.90;;;;;;5133471;27;20357;-41
2023/09/10 02:35:08;;;;;;;;;;;17.00;99.90;;;;;;5133633;27;19907;-42
2023/09/10 02:37:34;;;;;;;;;;;17.00;99.90;;;;;;5133770;27;20381;-42
2023/09/10 02:39:59;;;;;;;;;;;17.00;99.90;;;;;;5133667;27;19911;-43
2023/09/10 02:42:25;;;;;;;;;;;17.00;99.90;;;;;;5133645;27;19907;-42
2023/09/10 02:44:50;;;;;;;;;;;17.00;99.90;;;;;;5133732;27;19919;-41
2023/09/10 02:47:16;;;;;;;;;;;17.00;99.90;;;;;;5133313;27;19990;-42
2023/09/10 02:49:41;;;;;;;;;;;17.00;99.90;;;;;;5133333;27;20336;-44
2023/09/10 02:52:06;;;;;;;;;;;16.90;99.90;;;;;;5154557;27;19914;-46
2023/09/10 02:54:35;;;;;;;;;;;16.90;99.90;;;;;;5154300;27;20426;-42
2023/09/10 02:57:01;;;;;;;;;;;16.90;99.90;;;;;;5154057;27;19952;-42
2023/09/10 02:59:27;;;;;;;;;;;16.90;99.90;;;;;;5154157;27;19911;-41
2023/09/10 03:01:53;;;;;;;;;;;16.90;99.90;;;;;;5150247;27;19908;-41
2023/09/10 03:04:19;;;;;;;;;;;16.80;99.90;;;;;;5133344;28;20358;-40
2023/09/10 03:06:45;;;;;;;;;;;16.80;99.90;;;;;;5133454;28;20358;-42
2023/09/10 03:09:11;;;;;;;;;;;16.80;99.90;;;;;;5133403;28;19911;-40
2023/09/10 03:11:38;;;;;;;;;;;16.80;99.90;;;;;;5133360;28;19933;-41
2023/09/10 03:14:04;;;;;;;;;;;16.70;99.90;;;;;;5133339;28;19907;-41
2023/09/10 03:16:29;;;;;;;;;;;16.70;99.90;;;;;;5133424;28;19914;-40
2023/09/10 03:18:55;;;;;;;;;;;16.70;99.90;;;;;;5133272;28;19908;-43
2023/09/10 03:21:21;;;;;;;;;;;16.70;99.90;;;;;;5133102;27;19936;-46
2023/09/10 03:23:47;;;;;;;;;;;16.70;99.90;;;;;;5133252;28;20007;-40
2023/09/10 03:26:12;;;;;;;;;;;16.70;99.90;;;;;;5133161;28;19965;-41
2023/09/10 03:28:37;;;;;;;;;;;16.70;99.90;;;;;;5133385;28;20380;-41
2023/09/10 03:31:03;;;;;;;;;;;16.70;99.90;;;;;;5132845;27;20000;-40
2023/09/10 03:33:29;;;;;;;;;;;16.80;99.90;;;;;;5133213;28;19908;-41
2023/09/10 03:35:54;;;;;;;;;;;16.70;99.90;;;;;;5133269;28;19908;-41
2023/09/10 03:38:20;;;;;;;;;;;16.80;99.90;;;;;;5133218;28;20316;-41
2023/09/10 03:40:45;;;;;;;;;;;16.70;99.90;;;;;;5133095;28;20304;-42
2023/09/10 03:43:10;;;;;;;;;;;16.80;99.90;;;;;;5132982;28;19915;-42
2023/09/10 03:45:36;;;;;;;;;;;16.70;99.90;;;;;;5133277;28;19946;-41
2023/09/10 03:48:02;;;;;;;;;;;16.70;99.90;;;;;;5133043;28;20274;-40
2023/09/10 03:50:27;;;;;;;;;;;16.70;99.90;;;;;;5138939;27;19966;-40
2023/09/10 03:52:52;;;;;;;;;;;16.70;99.90;;;;;;5153757;27;20273;-43
2023/09/10 03:55:18;;;;;;;;;;;16.70;99.90;;;;;;5153524;27;19915;-42
2023/09/10 03:57:43;;;;;;;;;;;16.70;99.90;;;;;;5153733;27;20370;-42
2023/09/10 04:00:09;;;;;;;;;;;16.70;99.90;;;;;;5156131;27;19956;-42
2023/09/10 04:02:35;;;;;;;;;;;16.70;99.90;;;;;;5157327;27;19954;-41
2023/09/10 04:05:00;;;;;;;;;;;16.70;99.90;;;;;;5157110;27;19950;-41
2023/09/10 04:07:26;;;;;;;;;;;16.70;99.90;;;;;;5145404;27;20212;-42
2023/09/10 04:09:51;;;;;;;;;;;16.60;99.90;;;;;;5136349;27;19907;-41
2023/09/10 04:12:16;;;;;;;;;;;16.60;99.90;;;;;;5136683;27;19908;-43
2023/09/10 04:14:42;;;;;;;;;;;16.50;99.90;;;;;;5136476;27;19965;-43
2023/09/10 04:17:07;;;;;;;;;;;16.50;99.90;;;;;;5136363;27;19919;-42
2023/09/10 04:19:33;;;;;;;;;;;16.50;99.90;;;;;;5136363;27;19907;-42
2023/09/10 04:21:58;;;;;;;;;;;16.50;99.90;;;;;;5136279;27;19928;-40
2023/09/10 04:24:24;;;;;;;;;;;16.50;99.90;;;;;;5136012;27;19920;-42
2023/09/10 04:26:50;;;;;;;;;;;16.50;99.90;;;;;;5136565;27;20342;-43
2023/09/10 04:29:15;;;;;;;;;;;16.50;99.90;;;;;;5135858;27;19908;-42
2023/09/10 04:31:42;;;;;;;;;;;16.40;99.90;;;;;;5133834;27;19923;-42
2023/09/10 04:34:08;;;;;;;;;;;16.40;99.90;;;;;;5124313;27;19915;-42
2023/09/10 04:36:33;;;;;;;;;;;16.40;99.90;;;;;;5139083;27;19918;-42
2023/09/10 04:38:59;;;;;;;;;;;16.40;99.90;;;;;;5138607;27;19918;-41
2023/09/10 04:41:24;;;;;;;;;;;16.40;99.90;;;;;;5141233;27;19993;-40
2023/09/10 04:43:50;;;;;;;;;;;16.40;99.90;;;;;;5145272;27;20284;-42
2023/09/10 04:46:15;;;;;;;;;;;16.40;99.90;;;;;;5145048;27;19911;-41
2023/09/10 04:48:41;;;;;;;;;;;16.40;99.90;;;;;;5144086;27;19907;-41
2023/09/10 04:51:07;;;;;;;;;;;16.40;99.90;;;;;;5144989;27;19907;-42
2023/09/10 04:53:33;;;;;;;;;;;16.40;99.90;;;;;;5144552;27;20357;-44
2023/09/10 04:55:59;;;;;;;;;;;16.40;99.90;;;;;;5145373;27;19908;-42
2023/09/10 04:58:24;;;;;;;;;;;16.30;99.90;;;;;;5127172;27;19908;-42
2023/09/10 05:00:50;;;;;;;;;;;16.40;99.90;;;;;;5135479;27;19918;-41
2023/09/10 05:03:16;;;;;;;;;;;16.30;99.90;;;;;;5135345;27;19915;-43
2023/09/10 05:05:41;;;;;;;;;;;16.30;99.90;;;;;;5135505;27;19930;-42
2023/09/10 05:08:07;;;;;;;;;;;16.20;99.90;;;;;;5135096;27;19908;-42
2023/09/10 05:10:32;;;;;;;;;;;16.30;99.90;;;;;;5114501;27;20016;-41
2023/09/10 05:12:58;;;;;;;;;;;16.30;99.90;;;;;;5114646;28;19961;-42
2023/09/10 05:15:23;;;;;;;;;;;16.30;99.90;;;;;;5125786;27;19907;-42
2023/09/10 05:17:49;;;;;;;;;;;16.20;99.90;;;;;;5135067;27;19911;-42
2023/09/10 05:20:14;;;;;;;;;;;16.30;99.90;;;;;;5134836;27;19950;-45
2023/09/10 05:22:40;;;;;;;;;;;16.30;99.90;;;;;;5134964;27;19911;-42
2023/09/10 05:25:06;;;;;;;;;;;16.20;99.90;;;;;;5146214;27;19922;-42
2023/09/10 05:27:31;;;;;;;;;;;16.30;99.90;;;;;;5142794;27;19915;-42
2023/09/10 05:29:57;;;;;;;;;;;16.30;99.90;;;;;;5140866;27;19946;-42
2023/09/10 05:32:22;;;;;;;;;;;16.20;99.90;;;;;;5143718;27;19966;-44
2023/09/10 05:34:48;;;;;;;;;;;16.20;99.90;;;;;;5153332;27;19911;-42
2023/09/10 05:37:13;;;;;;;;;;;16.30;99.90;;;;;;5150774;27;19911;-43
2023/09/10 05:39:39;;;;;;;;;;;16.30;99.90;;;;;;5137354;27;19915;-43
2023/09/10 05:42:04;;;;;;;;;;;16.30;99.90;;;;;;5133280;27;19915;-41
2023/09/10 05:44:30;;;;;;;;;;;16.30;99.90;;;;;;5136942;27;20014;-42
2023/09/10 05:46:55;;;;;;;;;;;16.30;99.90;;;;;;5135623;27;19957;-42
2023/09/10 05:49:21;;;;;;;;;;;16.40;99.90;;;;;;5130731;27;20301;-42
2023/09/10 05:51:46;;;;;;;;;;;16.40;99.90;;;;;;5145515;27;19915;-40
2023/09/10 05:54:12;;;;;;;;;;;16.40;99.90;;;;;;5148580;27;19962;-40
2023/09/10 05:56:37;;;;;;;;;;;16.40;99.90;;;;;;5154968;27;20341;-42
2023/09/10 05:59:02;;;;;;;;;;;16.50;99.90;;;;;;5149982;27;19914;-43
2023/09/10 06:01:28;;;;;;;;;;;16.50;99.90;;;;;;5144353;27;19915;-41
2023/09/10 06:03:53;;;;;;;;;;;16.50;99.90;;;;;;5141820;27;19919;-42
2023/09/10 06:06:19;;;;;;;;;;;16.60;99.90;;;;;;5143056;27;19914;-42
2023/09/10 06:08:44;;;;;;;;;;;16.60;99.90;;;;;;5144582;27;19915;-40
2023/09/10 06:11:10;;;;;;;;;;;16.70;99.90;;;;;;5143764;27;19919;-40
2023/09/10 06:13:35;;;;;;;;;;;16.70;99.90;;;;;;5140514;27;19919;-41
2023/09/10 06:16:01;;;;;;;;;;;16.70;99.90;;;;;;5147352;27;19911;-41
2023/09/10 06:18:27;;;;;;;;;;;16.80;99.90;;;;;;5139096;27;20358;-40
2023/09/10 06:20:52;;;;;;;;;;;16.80;99.90;;;;;;5131949;27;19915;-42
2023/09/10 06:23:17;;;;;;;;;;;16.90;99.90;;;;;;5147692;27;20369;-42
2023/09/10 06:25:43;;;;;;;;;;;17.00;99.90;;;;;;5145133;27;19907;-41
2023/09/10 06:28:09;;;;;;;;;;;17.00;99.90;;;;;;5133719;27;19918;-41
2023/09/10 06:30:34;;;;;;;;;;;17.10;99.90;;;;;;5142681;27;20043;-44
2023/09/10 06:33:00;;;;;;;;;;;17.20;99.90;;;;;;5141597;27;19919;-41
2023/09/10 06:35:26;;;;;;;;;;;17.20;99.90;;;;;;5142193;27;19915;-41
2023/09/10 06:37:51;;;;;;;;;;;17.30;99.90;;;;;;5143567;27;19918;-42
2023/09/10 06:40:17;;;;;;;;;;;17.30;99.90;;;;;;5144997;27;19949;-41
2023/09/10 06:42:43;;;;;;;;;;;17.40;99.90;;;;;;5151441;27;19908;-40
2023/09/10 06:45:08;;;;;;;;;;;17.50;99.90;;;;;;5138474;27;20019;-40
2023/09/10 06:47:34;;;;;;;;;;;17.50;99.90;;;;;;5143902;27;20021;-42
2023/09/10 06:49:59;;;;;;;;;;;17.60;99.90;;;;;;5142685;27;19907;-42
2023/09/10 06:52:25;;;;;;;;;;;17.70;99.90;;;;;;5141839;27;19915;-42
2023/09/10 06:54:50;;;;;;;;;;;17.80;99.90;;;;;;5141130;27;20289;-46
2023/09/10 06:57:16;;;;;;;;;;;17.90;99.90;;;;;;5143021;27;19926;-41
2023/09/10 06:59:41;;;;;;;;;;;17.90;99.90;;;;;;5143273;27;20345;-42
2023/09/10 07:02:07;;;;;;;;;;;18.00;99.90;;;;;;5115246;28;19911;-42
2023/09/10 07:04:32;;;;;;;;;;;18.10;99.90;;;;;;5143695;27;19962;-41
2023/09/10 07:06:58;;;;;;;;;;;18.20;99.90;;;;;;5142147;27;19911;-42
2023/09/10 07:09:23;;;;;;;;;;;18.30;99.90;;;;;;5139336;27;19918;-42
2023/09/10 07:11:52;;;;;;;;;;;18.40;99.90;;;;;;5133601;27;19974;-42
2023/09/10 07:14:19;;;;;;;;;;;18.50;99.90;;;;;;5133964;27;19955;-43
2023/09/10 07:16:45;;;;;;;;;;;18.60;99.90;;;;;;5141495;27;20320;-42
2023/09/10 07:19:11;;;;;;;;;;;18.80;99.90;;;;;;5140028;27;19915;-46
2023/09/10 07:21:37;;;;;;;;;;;18.90;99.90;;;;;;5153822;27;19907;-43
2023/09/10 07:24:06;;;;;;;;;;;19.00;99.90;;;;;;5131621;27;19954;-42
2023/09/10 07:26:34;;;;;;;;;;;19.10;99.90;;;;;;5133277;28;19915;-41
2023/09/10 07:29:00;;;;;;;;;;;19.20;99.90;;;;;;5133140;28;19957;-43
2023/09/10 07:31:25;;;;;;;;;;;19.30;99.90;;;;;;5133075;27;20012;-41
2023/09/10 07:33:51;;;;;;;;;;;19.50;99.90;;;;;;5135807;27;19914;-43
2023/09/10 07:36:17;;;;;;;;;;;19.50;99.90;;;;;;5137201;27;19908;-45
2023/09/10 07:38:42;;;;;;;;;;;19.60;99.90;;;;;;5137189;27;19966;-42
2023/09/10 07:41:07;;;;;;;;;;;19.70;99.90;;;;;;5137001;27;19961;-42
2023/09/10 07:43:33;;;;;;;;;;;19.90;99.90;;;;;;5136946;27;19922;-41
2023/09/10 07:45:58;;;;;;;;;;;20.00;99.90;;;;;;5136770;27;19980;-47
2023/09/10 07:48:24;;;;;;;;;;;20.10;99.90;;;;;;5150813;27;19930;-42
2023/09/10 07:50:53;;;;;;;;;;;20.20;99.90;;;;;;5157617;27;20314;-43
2023/09/10 07:53:19;;;;;;;;;;;20.30;99.90;;;;;;5157290;27;20373;-42
2023/09/10 07:55:44;;;;;;;;;;;20.40;99.90;;;;;;5157337;27;19907;-43
2023/09/10 07:58:10;;;;;;;;;;;20.50;99.90;;;;;;5149092;27;19915;-42
2023/09/10 08:00:36;;;;;;;;;;;20.60;99.90;;;;;;5145853;27;20247;-42
2023/09/10 08:03:03;;;;;;;;;;;20.70;99.90;;;;;;5146182;27;20306;-44
2023/09/10 08:05:29;;;;;;;;;;;20.80;99.90;;;;;;5141713;27;19938;-41
2023/09/10 08:07:54;;;;;;;;;;;20.90;99.90;;;;;;5135043;27;20014;-41
2023/09/10 08:10:20;;;;;;;;;;;21.00;99.90;;;;;;5133189;27;20069;-42
2023/09/10 08:12:45;;;;;;;;;;;21.10;99.90;;;;;;5143535;27;19907;-41
2023/09/10 08:15:11;;;;;;;;;;;21.20;99.90;;;;;;5146495;27;20281;-42
2023/09/10 08:17:37;;;;;;;;;;;21.30;99.90;;;;;;5144106;27;20265;-44
2023/09/10 08:20:03;;;;;;;;;;;21.40;99.90;;;;;;5146220;27;20393;-41
2023/09/10 08:22:29;;;;;;;;;;;21.50;99.90;;;;;;5136557;27;19912;-41
2023/09/10 08:24:55;;;;;;;;;;;21.60;99.90;;;;;;5137141;27;19941;-42
2023/09/10 08:27:20;;;;;;;;;;;21.60;99.90;;;;;;5136965;27;20262;-43
2023/09/10 08:29:46;;;;;;;;;;;21.70;99.90;;;;;;5136887;27;19929;-42
2023/09/10 08:32:12;;;;;;;;;;;21.80;99.90;;;;;;5136388;27;20288;-42
2023/09/10 08:34:38;;;;;;;;;;;21.90;99.90;;;;;;5136985;27;19953;-41
2023/09/10 08:37:05;;;;;;;;;;;22.00;99.90;;;;;;5136129;27;19907;-43
2023/09/10 08:39:31;;;;;;;;;;;22.10;99.90;;;;;;5128580;27;19916;-41
2023/09/10 08:42:06;;;;;;;;;;;22.20;99.90;;;;;;5135223;27;20311;-43
2023/09/10 08:44:32;;;;;;;;;;;22.30;99.90;;;;;;5143286;27;19960;-42
2023/09/10 08:47:00;;;;;;;;;;;22.40;99.90;;;;;;5125339;27;19907;-42
2023/09/10 08:49:26;;;;;;;;;;;22.50;99.90;;;;;;5128001;27;19908;-41
2023/09/10 08:51:52;;;;;;;;;;;22.60;99.90;;;;;;5136264;27;19907;-41
2023/09/10 08:54:17;;;;;;;;;;;22.70;99.90;;;;;;5136023;27;19933;-42
2023/09/10 08:56:43;;;;;;;;;;;22.80;99.90;;;;;;5135924;27;20356;-41
2023/09/10 08:59:10;;;;;;;;;;;22.80;99.90;;;;;;5136135;27;19911;-44
2023/09/10 09:01:36;;;;;;;;;;;22.90;99.90;;;;;;5136009;27;20018;-42
2023/09/10 09:04:02;;;;;;;;;;;23.00;99.90;;;;;;5135977;27;20293;-42
2023/09/10 09:06:29;;;;;;;;;;;23.10;99.90;;;;;;5135689;27;19915;-42
2023/09/10 09:08:56;;;;;;;;;;;23.20;99.90;;;;;;5135920;27;19914;-42
2023/09/10 09:11:22;;;;;;;;;;;23.30;99.90;;;;;;5135766;27;19918;-42
2023/09/10 09:13:48;;;;;;;;;;;23.40;99.90;;;;;;5135184;27;19907;-43
2023/09/10 09:16:14;;;;;;;;;;;23.50;99.90;;;;;;5134395;27;19922;-41
2023/09/10 09:18:40;;;;;;;;;;;23.60;99.90;;;;;;5135150;27;19917;-42
2023/09/10 09:21:16;;;;;;;;;;;23.70;99.90;;;;;;5134697;27;20006;-41
2023/09/10 09:23:49;;;;;;;;;;;23.80;99.90;;;;;;5134999;27;19954;-41
2023/09/10 09:26:15;;;;;;;;;;;23.80;99.90;;;;;;5134918;27;19916;-44
2023/09/10 09:28:40;;;;;;;;;;;23.90;99.90;;;;;;5134604;27;19916;-41
2023/09/10 09:31:10;;;;;;;;;;;24.00;99.90;;;;;;5130878;27;19923;-41
2023/09/10 09:33:38;;;;;;;;;;;24.20;99.90;;;;;;5114306;28;19943;-40
2023/09/10 09:36:08;;;;;;;;;;;24.20;99.90;;;;;;5113635;28;19957;-42
2023/09/10 09:38:33;;;;;;;;;;;24.30;99.90;;;;;;5114086;28;20354;-41
2023/09/10 09:41:01;;;;;;;;;;;24.40;99.90;;;;;;5113975;28;19961;-42
2023/09/10 09:43:27;;;;;;;;;;;24.50;99.90;;;;;;5114097;28;20332;-42
2023/09/10 09:45:52;;;;;;;;;;;24.60;99.90;;;;;;5106636;28;19912;-42
2023/09/10 09:48:18;;;;;;;;;;;24.70;99.90;;;;;;5094271;28;19916;-41
2023/09/10 09:50:45;;;;;;;;;;;24.80;99.90;;;;;;5124195;27;20002;-44
2023/09/10 09:53:11;;;;;;;;;;;24.80;99.90;;;;;;5115798;27;20007;-42
2023/09/10 09:55:37;;;;;;;;;;;24.90;99.90;;;;;;5112283;28;19979;-42
2023/09/10 09:58:04;;;;;;;;;;;25.00;99.90;;;;;;5114518;28;19908;-44
2023/09/10 10:00:32;;;;;;;;;;;25.00;99.90;;;;;;5118219;27;19915;-41
2023/09/10 10:02:57;;;;;;;;;;;25.10;99.90;;;;;;5112217;28;19912;-42
2023/09/10 10:05:23;;;;;;;;;;;25.20;99.90;;;;;;5103213;27;20382;-44
2023/09/10 10:07:50;;;;;;;;;;;25.20;99.90;;;;;;5122572;27;19917;-44
2023/09/10 10:10:15;;;;;;;;;;;25.30;99.90;;;;;;5122935;27;19920;-43
2023/09/10 10:12:44;;;;;;;;;;;25.40;99.90;;;;;;5122156;27;19961;-41
2023/09/10 10:15:11;;;;;;;;;;;25.40;99.90;;;;;;5106409;27;20394;-42
2023/09/10 10:17:36;;;;;;;;;;;25.60;99.90;;;;;;5100084;28;19911;-42
2023/09/10 10:20:04;;;;;;;;;;;25.60;99.90;;;;;;5116513;27;19922;-43
2023/09/10 10:22:31;;;;;;;;;;;25.70;99.90;;;;;;5105346;28;19911;-42
2023/09/10 10:24:56;;;;;;;;;;;25.80;99.90;;;;;;5113068;28;19916;-42
2023/09/10 10:27:24;;;;;;;;;;;25.80;99.90;;;;;;5113478;28;19911;-41
2023/09/10 10:29:50;;;;;;;;;;;25.90;99.90;;;;;;5113101;28;19920;-42
2023/09/10 10:32:15;;;;;;;;;;;26.00;99.90;;;;;;5094848;28;20002;-43
2023/09/10 10:34:46;;;;;;;;;;;26.10;99.90;;;;;;5102823;28;19920;-42
2023/09/10 10:37:16;;;;;;;;;;;26.20;99.90;;;;;;5104101;27;20205;-43
2023/09/10 10:39:49;;;;;;;;;;;26.30;99.90;;;;;;5100195;28;19963;-43
2023/09/10 10:42:17;;;;;;;;;;;26.40;99.90;;;;;;5107179;28;19912;-44
2023/09/10 10:44:43;;;;;;;;;;;26.40;99.90;;;;;;5105341;28;20370;-42
2023/09/10 10:47:18;;;;;;;;;;;26.50;99.90;;;;;;5092623;28;20011;-44
2023/09/10 10:49:52;;;;;;;;;;;26.50;99.90;;;;;;5099978;28;19916;-41
2023/09/10 10:52:20;;;;;;;;;;;26.60;99.90;;;;;;5120445;28;20457;-42
2023/09/10 10:54:46;;;;;;;;;;;26.60;99.90;;;;;;5118304;28;19912;-41
2023/09/10 10:57:12;;;;;;;;;;;26.70;99.90;;;;;;5099994;28;19908;-42
2023/09/10 10:59:38;;;;;;;;;;;26.80;99.90;;;;;;5092595;28;20329;-43
2023/09/10 11:02:21;;;;;;;;;;;26.90;99.90;;;;;;5092494;28;19908;-42
2023/09/10 11:05:13;;;;;;;;;;;27.00;99.90;;;;;;5092563;28;19970;-43
2023/09/10 11:07:38;;;;;;;;;;;27.00;99.90;;;;;;5090304;28;19954;-42
2023/09/10 11:10:23;;;;;;;;;;;27.10;99.90;;;;;;5104284;28;20359;-41
2023/09/10 11:13:08;;;;;;;;;;;27.20;99.90;;;;;;5097134;28;19908;-42
2023/09/10 11:15:33;;;;;;;;;;;27.30;99.90;;;;;;5099261;28;19912;-43
2023/09/10 11:18:17;;;;;;;;;;;27.30;99.90;;;;;;5112980;27;19923;-44
2023/09/10 11:20:50;;;;;;;;;;;27.40;99.90;;;;;;5132693;27;19970;-46
2023/09/10 11:23:15;;;;;;;;;;;27.40;99.90;;;;;;5117168;27;19919;-41
2023/09/10 11:25:41;;;;;;;;;;;27.50;99.90;;;;;;5103567;28;19912;-45
2023/09/10 11:28:27;;;;;;;;;;;27.60;99.90;;;;;;5108354;28;19912;-42
2023/09/10 11:30:52;;;;;;;;;;;27.60;99.90;;;;;;5054722;28;19912;-43
2023/09/10 11:33:27;;;;;;;;;;;27.60;99.90;;;;;;5101152;28;19912;-41
2023/09/10 11:35:54;;;;;;;;;;;27.70;99.90;;;;;;5095668;28;19912;-43
2023/09/10 11:38:20;;;;;;;;;;;27.80;99.90;;;;;;5102293;28;19915;-42
2023/09/10 11:40:46;;;;;;;;;;;27.90;99.90;;;;;;5095709;28;19977;-43
2023/09/10 11:43:11;;;;;;;;;;;27.90;99.90;;;;;;5100558;28;20321;-42
2023/09/10 11:45:37;;;;;;;;;;;28.00;99.90;;;;;;5095163;28;19951;-41
2023/09/10 11:48:03;;;;;;;;;;;28.00;99.90;;;;;;5095454;28;19959;-41
2023/09/10 11:50:28;;;;;;;;;;;28.10;99.90;;;;;;5094973;28;20070;-42
2023/09/10 11:52:54;;;;;;;;;;;28.20;99.90;;;;;;5095989;28;19908;-42
2023/09/10 11:55:20;;;;;;;;;;;28.20;99.90;;;;;;5095864;28;19909;-43
2023/09/10 11:57:46;;;;;;;;;;;28.40;99.90;;;;;;5095955;28;19962;-42
2023/09/10 12:00:12;;;;;;;;;;;28.50;99.90;;;;;;5095769;28;20282;-42
2023/09/10 12:02:40;;;;;;;;;;;28.50;99.90;;;;;;5095796;28;19954;-42
2023/09/10 12:05:08;;;;;;;;;;;28.50;99.90;;;;;;5095590;28;20011;-41
2023/09/10 12:07:34;;;;;;;;;;;28.60;99.90;;;;;;5095759;28;19908;-42
2023/09/10 12:09:59;;;;;;;;;;;28.60;99.90;;;;;;5095502;28;20373;-43
2023/09/10 12:12:27;;;;;;;;;;;28.60;99.90;;;;;;5095689;28;20054;-41
2023/09/10 12:14:53;;;;;;;;;;;28.70;99.90;;;;;;5095581;28;19927;-41
2023/09/10 12:17:19;;;;;;;;;;;28.80;99.90;;;;;;5095407;28;19915;-41
2023/09/10 12:19:45;;;;;;;;;;;28.90;99.90;;;;;;5106679;27;19911;-41
2023/09/10 12:22:14;;;;;;;;;;;28.90;99.90;;;;;;5136314;27;19933;-41
2023/09/10 12:24:40;;;;;;;;;;;28.90;99.90;;;;;;5136278;27;19919;-41
2023/09/10 12:27:05;;;;;;;;;;;28.90;99.90;;;;;;5136330;27;20338;-42
2023/09/10 12:29:31;;;;;;;;;;;29.00;99.90;;;;;;5135810;27;19915;-43
2023/09/10 12:31:57;;;;;;;;;;;29.00;99.90;;;;;;5146649;27;20297;-42
2023/09/10 12:34:23;;;;;;;;;;;29.10;99.90;;;;;;5156919;27;19907;-42
2023/09/10 12:36:52;;;;;;;;;;;29.10;99.90;;;;;;5156831;27;19907;-42
2023/09/10 12:39:21;;;;;;;;;;;29.10;99.90;;;;;;5156792;27;19907;-42
2023/09/10 12:41:51;;;;;;;;;;;29.30;99.90;;;;;;5156876;27;19914;-42
2023/09/10 12:44:17;;;;;;;;;;;29.40;99.90;;;;;;5156666;27;19954;-42
2023/09/10 12:46:42;;;;;;;;;;;29.50;99.90;;;;;;5156661;27;19949;-42
2023/09/10 12:49:08;;;;;;;;;;;29.60;99.90;;;;;;5155292;27;19908;-41
2023/09/10 12:51:34;;;;;;;;;;;29.70;99.90;;;;;;5135169;27;19907;-42
2023/09/10 12:53:59;;;;;;;;;;;29.80;99.90;;;;;;5134957;27;20273;-41
2023/09/10 12:56:26;;;;;;;;;;;29.90;99.90;;;;;;5135160;27;19954;-41
2023/09/10 12:58:52;;;;;;;;;;;30.00;99.90;;;;;;5135043;27;19973;-42
2023/09/10 13:01:22;;;;;;;;;;;30.10;99.90;;;;;;5135689;27;19907;-41
2023/09/10 13:03:47;;;;;;;;;;;30.30;99.90;;;;;;5135633;27;19916;-42
2023/09/10 13:06:13;;;;;;;;;;;30.40;99.90;;;;;;5135325;27;19954;-43
2023/09/10 13:08:38;;;;;;;;;;;30.60;99.90;;;;;;5135637;27;19952;-41
2023/09/10 13:11:04;;;;;;;;;;;30.80;99.90;;;;;;5135459;27;20301;-42
2023/09/10 13:13:29;;;;;;;;;;;30.90;99.90;;;;;;5121452;27;19915;-42
2023/09/10 13:15:55;;;;;;;;;;;31.00;99.90;;;;;;5120689;27;20276;-42
2023/09/10 13:18:20;;;;;;;;;;;31.20;99.90;;;;;;5123730;27;19974;-43
2023/09/10 13:20:46;;;;;;;;;;;31.40;99.90;;;;;;5129091;27;19911;-42
2023/09/10 13:23:11;;;;;;;;;;;31.50;99.90;;;;;;5133407;27;19999;-43
2023/09/10 13:25:37;;;;;;;;;;;31.70;99.90;;;;;;5133235;27;19923;-41
2023/09/10 13:28:03;;;;;;;;;;;31.90;99.90;;;;;;5134770;27;19954;-42
2023/09/10 13:30:29;;;;;;;;;;;32.00;99.90;;;;;;5120700;27;19915;-43
2023/09/10 13:32:54;;;;;;;;;;;32.00;99.90;;;;;;5114925;27;19920;-43
2023/09/10 13:35:22;;;;;;;;;;;32.20;99.90;;;;;;5114267;27;20052;-41
2023/09/10 13:37:47;;;;;;;;;;;32.30;99.90;;;;;;5114364;28;19942;-41
2023/09/10 13:40:13;;;;;;;;;;;32.50;99.90;;;;;;5115015;27;20370;-42
2023/09/10 13:42:38;;;;;;;;;;;32.60;99.90;;;;;;5134058;27;20373;-42
2023/09/10 13:45:04;;;;;;;;;;;32.80;99.90;;;;;;5134050;27;19915;-43
2023/09/10 13:47:30;;;;;;;;;;;32.80;99.90;;;;;;5127311;27;20010;-41
2023/09/10 13:49:55;;;;;;;;;;;32.90;99.90;;;;;;5141234;27;20369;-42
2023/09/10 13:52:21;;;;;;;;;;;33.00;99.90;;;;;;5151298;27;19934;-44
2023/09/10 13:54:46;;;;;;;;;;;33.10;99.10;;;;;;5134500;27;19956;-42
2023/09/10 13:57:12;;;;;;;;;;;33.20;99.40;;;;;;5134069;27;19907;-42
2023/09/10 13:59:37;;;;;;;;;;;33.20;99.10;;;;;;5134450;27;19962;-42
2023/09/10 14:02:03;;;;;;;;;;;33.30;99.60;;;;;;5133987;27;19907;-44
2023/09/10 14:04:29;;;;;;;;;;;33.20;99.40;;;;;;5134316;27;20052;-42
2023/09/10 14:06:55;;;;;;;;;;;33.20;98.90;;;;;;5134436;27;19911;-44
2023/09/10 14:09:20;;;;;;;;;;;33.10;98.90;;;;;;5134267;27;19912;-41
2023/09/10 14:11:46;;;;;;;;;;;33.10;99.10;;;;;;5133809;27;20373;-42